sensor_id;sensor_type;location;lat;lon;timestamp;temperature;humidity
13561;DHT22;6852;51.686;5.314;2023-02-28T00:00:24;2.90;99.90
13561;DHT22;6852;51.686;5.314;2023-02-28T00:02:52;2.90;99.90
13561;DHT22;6852;51.686;5.314;2023-02-28T00:05:22;2.90;99.90
13561;DHT22;6852;51.686;5.314;2023-02-28T00:07:50;2.90;99.90
13561;DHT22;6852;51.686;5.314;2023-02-28T00:10:20;2.90;99.90
13561;DHT22;6852;51.686;5.314;2023-02-28T00:12:48;2.90;99.90
13561;DHT22;6852;51.686;5.314;2023-02-28T00:15:15;2.90;99.90
13561;DHT22;6852;51.686;5.314;2023-02-28T00:17:43;3.00;99.90
13561;DHT22;6852;51.686;5.314;2023-02-28T00:20:10;2.90;99.90
13561;DHT22;6852;51.686;5.314;2023-02-28T00:22:40;2.90;99.90
13561;DHT22;6852;51.686;5.314;2023-02-28T00:25:08;2.80;99.90
13561;DHT22;6852;51.686;5.314;2023-02-28T00:27:36;2.70;99.90
13561;DHT22;6852;51.686;5.314;2023-02-28T00:30:05;2.70;99.90
13561;DHT22;6852;51.686;5.314;2023-02-28T00:32:32;2.70;99.90
13561;DHT22;6852;51.686;5.314;2023-02-28T00:35:01;2.80;99.90
13561;DHT22;6852;51.686;5.314;2023-02-28T00:37:28;2.70;99.90
13561;DHT22;6852;51.686;5.314;2023-02-28T00:39:55;2.70;99.90
13561;DHT22;6852;51.686;5.314;2023-02-28T00:42:22;2.60;99.90
13561;DHT22;6852;51.686;5.314;2023-02-28T00:44:49;2.60;99.90
13561;DHT22;6852;51.686;5.314;2023-02-28T00:47:16;2.60;99.90
13561;DHT22;6852;51.686;5.314;2023-02-28T00:49:43;2.60;99.90
13561;DHT22;6852;51.686;5.314;2023-02-28T00:52:10;2.70;99.90
13561;DHT22;6852;51.686;5.314;2023-02-28T00:54:37;2.70;99.90
13561;DHT22;6852;51.686;5.314;2023-02-28T00:57:04;2.70;99.90
13561;DHT22;6852;51.686;5.314;2023-02-28T00:59:30;2.70;99.90
13561;DHT22;6852;51.686;5.314;2023-02-28T01:01:57;2.80;99.90
13561;DHT22;6852;51.686;5.314;2023-02-28T01:04:24;2.70;99.90
13561;DHT22;6852;51.686;5.314;2023-02-28T01:06:52;2.80;99.90
13561;DHT22;6852;51.686;5.314;2023-02-28T01:09:20;2.70;99.90
13561;DHT22;6852;51.686;5.314;2023-02-28T01:11:47;2.80;99.90
13561;DHT22;6852;51.686;5.314;2023-02-28T01:14:15;2.80;99.90
13561;DHT22;6852;51.686;5.314;2023-02-28T01:16:42;2.70;99.90
13561;DHT22;6852;51.686;5.314;2023-02-28T01:19:09;2.60;99.90
13561;DHT22;6852;51.686;5.314;2023-02-28T01:21:36;2.60;99.90
13561;DHT22;6852;51.686;5.314;2023-02-28T01:24:04;2.70;99.90
13561;DHT22;6852;51.686;5.314;2023-02-28T01:26:31;2.60;99.90
13561;DHT22;6852;51.686;5.314;2023-02-28T01:28:58;2.70;99.90
13561;DHT22;6852;51.686;5.314;2023-02-28T01:31:25;2.60;99.90
13561;DHT22;6852;51.686;5.314;2023-02-28T01:33:53;2.60;99.90
13561;DHT22;6852;51.686;5.314;2023-02-28T01:36:22;2.60;99.90
13561;DHT22;6852;51.686;5.314;2023-02-28T01:38:49;2.60;99.90
13561;DHT22;6852;51.686;5.314;2023-02-28T01:41:22;2.70;99.90
13561;DHT22;6852;51.686;5.314;2023-02-28T01:46:20;2.80;99.90
13561;DHT22;6852;51.686;5.314;2023-02-28T01:49:05;2.80;99.90
13561;DHT22;6852;51.686;5.314;2023-02-28T01:51:44;2.70;99.90
13561;DHT22;6852;51.686;5.314;2023-02-28T01:54:16;2.70;99.90
13561;DHT22;6852;51.686;5.314;2023-02-28T01:56:54;2.80;99.90
13561;DHT22;6852;51.686;5.314;2023-02-28T01:59:29;2.70;99.90
13561;DHT22;6852;51.686;5.314;2023-02-28T02:01:56;2.80;99.90
13561;DHT22;6852;51.686;5.314;2023-02-28T02:04:26;2.70;99.90
13561;DHT22;6852;51.686;5.314;2023-02-28T02:06:55;2.80;99.90
13561;DHT22;6852;51.686;5.314;2023-02-28T02:09:22;2.80;99.90
13561;DHT22;6852;51.686;5.314;2023-02-28T02:11:49;2.70;99.90
13561;DHT22;6852;51.686;5.314;2023-02-28T02:17:44;2.80;99.90
13561;DHT22;6852;51.686;5.314;2023-02-28T02:20:32;2.70;99.90
13561;DHT22;6852;51.686;5.314;2023-02-28T02:42:23;2.70;99.90
13561;DHT22;6852;51.686;5.314;2023-02-28T02:45:04;2.90;99.90
13561;DHT22;6852;51.686;5.314;2023-02-28T02:47:33;2.90;99.90
13561;DHT22;6852;51.686;5.314;2023-02-28T02:50:05;2.90;99.90
13561;DHT22;6852;51.686;5.314;2023-02-28T02:52:38;2.80;99.90
13561;DHT22;6852;51.686;5.314;2023-02-28T02:55:08;2.80;99.90
13561;DHT22;6852;51.686;5.314;2023-02-28T02:57:45;2.80;99.90
13561;DHT22;6852;51.686;5.314;2023-02-28T03:00:15;2.90;99.90
13561;DHT22;6852;51.686;5.314;2023-02-28T03:02:45;2.90;99.90
13561;DHT22;6852;51.686;5.314;2023-02-28T03:05:33;2.90;99.90
13561;DHT22;6852;51.686;5.314;2023-02-28T03:08:03;2.90;99.90
13561;DHT22;6852;51.686;5.314;2023-02-28T03:10:36;2.90;99.90
13561;DHT22;6852;51.686;5.314;2023-02-28T03:21:23;2.90;99.90
13561;DHT22;6852;51.686;5.314;2023-02-28T03:23:56;2.90;99.90
13561;DHT22;6852;51.686;5.314;2023-02-28T03:26:27;2.90;99.90
13561;DHT22;6852;51.686;5.314;2023-02-28T03:29:12;3.00;99.90
13561;DHT22;6852;51.686;5.314;2023-02-28T03:31:49;3.10;99.90
13561;DHT22;6852;51.686;5.314;2023-02-28T03:34:26;3.00;99.90
13561;DHT22;6852;51.686;5.314;2023-02-28T03:37:01;3.00;99.90
13561;DHT22;6852;51.686;5.314;2023-02-28T03:39:35;3.00;99.90
13561;DHT22;6852;51.686;5.314;2023-02-28T03:42:09;3.00;99.90
13561;DHT22;6852;51.686;5.314;2023-02-28T03:44:52;3.10;99.90
13561;DHT22;6852;51.686;5.314;2023-02-28T03:52:39;3.10;99.90
13561;DHT22;6852;51.686;5.314;2023-02-28T03:55:10;3.10;99.90
13561;DHT22;6852;51.686;5.314;2023-02-28T03:58:01;3.10;99.90
13561;DHT22;6852;51.686;5.314;2023-02-28T04:00:35;3.10;99.90
13561;DHT22;6852;51.686;5.314;2023-02-28T04:03:04;2.90;99.90
13561;DHT22;6852;51.686;5.314;2023-02-28T04:05:31;2.90;99.90
13561;DHT22;6852;51.686;5.314;2023-02-28T04:08:06;2.90;99.90
13561;DHT22;6852;51.686;5.314;2023-02-28T04:10:33;3.00;99.90
13561;DHT22;6852;51.686;5.314;2023-02-28T04:13:00;3.20;99.90
13561;DHT22;6852;51.686;5.314;2023-02-28T04:15:27;3.10;99.90
13561;DHT22;6852;51.686;5.314;2023-02-28T04:17:54;3.20;99.90
13561;DHT22;6852;51.686;5.314;2023-02-28T04:20:21;3.10;99.90
13561;DHT22;6852;51.686;5.314;2023-02-28T04:22:47;3.10;99.90
13561;DHT22;6852;51.686;5.314;2023-02-28T04:25:14;3.10;99.90
13561;DHT22;6852;51.686;5.314;2023-02-28T04:27:41;3.00;99.90
13561;DHT22;6852;51.686;5.314;2023-02-28T04:30:08;3.00;99.90
13561;DHT22;6852;51.686;5.314;2023-02-28T04:32:35;3.00;99.90
13561;DHT22;6852;51.686;5.314;2023-02-28T04:35:02;2.90;99.90
13561;DHT22;6852;51.686;5.314;2023-02-28T04:37:29;2.90;99.90
13561;DHT22;6852;51.686;5.314;2023-02-28T04:39:56;3.00;99.90
13561;DHT22;6852;51.686;5.314;2023-02-28T04:42:23;3.00;99.90
13561;DHT22;6852;51.686;5.314;2023-02-28T04:44:50;3.00;99.90
13561;DHT22;6852;51.686;5.314;2023-02-28T04:47:17;2.90;99.90
13561;DHT22;6852;51.686;5.314;2023-02-28T04:49:43;2.90;99.90
13561;DHT22;6852;51.686;5.314;2023-02-28T04:52:10;3.00;99.90
13561;DHT22;6852;51.686;5.314;2023-02-28T04:54:37;3.00;99.90
13561;DHT22;6852;51.686;5.314;2023-02-28T04:57:05;3.00;99.90
13561;DHT22;6852;51.686;5.314;2023-02-28T04:59:32;3.00;99.90
13561;DHT22;6852;51.686;5.314;2023-02-28T05:01:59;3.10;99.90
13561;DHT22;6852;51.686;5.314;2023-02-28T05:04:26;3.20;99.90
13561;DHT22;6852;51.686;5.314;2023-02-28T05:06:53;3.10;99.90
13561;DHT22;6852;51.686;5.314;2023-02-28T05:09:20;3.10;99.90
13561;DHT22;6852;51.686;5.314;2023-02-28T05:11:46;3.10;99.90
13561;DHT22;6852;51.686;5.314;2023-02-28T05:14:13;3.10;99.90
13561;DHT22;6852;51.686;5.314;2023-02-28T05:16:41;3.20;99.90
13561;DHT22;6852;51.686;5.314;2023-02-28T05:19:07;3.20;99.90
13561;DHT22;6852;51.686;5.314;2023-02-28T05:21:36;3.10;99.90
13561;DHT22;6852;51.686;5.314;2023-02-28T05:24:07;3.10;99.90
13561;DHT22;6852;51.686;5.314;2023-02-28T05:26:42;3.10;99.90
13561;DHT22;6852;51.686;5.314;2023-02-28T05:29:09;3.10;99.90
13561;DHT22;6852;51.686;5.314;2023-02-28T05:31:36;3.20;99.90
13561;DHT22;6852;51.686;5.314;2023-02-28T05:34:04;3.20;99.90
13561;DHT22;6852;51.686;5.314;2023-02-28T05:36:31;3.20;99.90
13561;DHT22;6852;51.686;5.314;2023-02-28T05:38:58;3.30;99.90
13561;DHT22;6852;51.686;5.314;2023-02-28T05:41:25;3.30;99.90
13561;DHT22;6852;51.686;5.314;2023-02-28T05:43:53;3.40;99.90
13561;DHT22;6852;51.686;5.314;2023-02-28T05:46:20;3.40;99.90
13561;DHT22;6852;51.686;5.314;2023-02-28T05:48:47;3.30;99.90
13561;DHT22;6852;51.686;5.314;2023-02-28T05:51:15;3.40;99.90
13561;DHT22;6852;51.686;5.314;2023-02-28T05:53:42;3.40;99.90
13561;DHT22;6852;51.686;5.314;2023-02-28T05:56:09;3.50;99.90
13561;DHT22;6852;51.686;5.314;2023-02-28T05:58:35;3.40;99.90
13561;DHT22;6852;51.686;5.314;2023-02-28T06:01:21;3.40;99.90
13561;DHT22;6852;51.686;5.314;2023-02-28T06:03:48;3.60;99.90
13561;DHT22;6852;51.686;5.314;2023-02-28T06:06:15;3.60;99.90
13561;DHT22;6852;51.686;5.314;2023-02-28T06:08:42;3.40;99.90
13561;DHT22;6852;51.686;5.314;2023-02-28T06:11:10;3.40;99.90
13561;DHT22;6852;51.686;5.314;2023-02-28T06:13:36;3.30;99.90
13561;DHT22;6852;51.686;5.314;2023-02-28T06:16:03;3.40;99.90
13561;DHT22;6852;51.686;5.314;2023-02-28T06:18:30;3.50;99.90
13561;DHT22;6852;51.686;5.314;2023-02-28T06:20:57;3.40;99.90
13561;DHT22;6852;51.686;5.314;2023-02-28T06:23:24;3.40;99.90
13561;DHT22;6852;51.686;5.314;2023-02-28T06:25:51;3.40;99.90
13561;DHT22;6852;51.686;5.314;2023-02-28T06:28:19;3.50;99.90
13561;DHT22;6852;51.686;5.314;2023-02-28T06:30:46;3.50;99.90
13561;DHT22;6852;51.686;5.314;2023-02-28T06:33:13;3.50;99.90
13561;DHT22;6852;51.686;5.314;2023-02-28T06:35:39;3.60;99.90
13561;DHT22;6852;51.686;5.314;2023-02-28T06:38:06;3.50;99.90
13561;DHT22;6852;51.686;5.314;2023-02-28T06:40:33;3.50;99.90
13561;DHT22;6852;51.686;5.314;2023-02-28T06:43:02;3.60;99.90
13561;DHT22;6852;51.686;5.314;2023-02-28T06:45:29;3.60;99.90
13561;DHT22;6852;51.686;5.314;2023-02-28T06:47:56;3.50;99.90
13561;DHT22;6852;51.686;5.314;2023-02-28T06:50:23;3.60;99.90
13561;DHT22;6852;51.686;5.314;2023-02-28T06:52:50;3.70;99.90
13561;DHT22;6852;51.686;5.314;2023-02-28T06:55:20;3.70;99.90
13561;DHT22;6852;51.686;5.314;2023-02-28T06:57:47;3.60;99.90
13561;DHT22;6852;51.686;5.314;2023-02-28T07:00:14;3.60;99.90
13561;DHT22;6852;51.686;5.314;2023-02-28T07:02:41;3.70;99.90
13561;DHT22;6852;51.686;5.314;2023-02-28T07:05:08;3.80;99.90
13561;DHT22;6852;51.686;5.314;2023-02-28T07:07:35;3.80;99.90
13561;DHT22;6852;51.686;5.314;2023-02-28T07:10:05;3.80;99.90
13561;DHT22;6852;51.686;5.314;2023-02-28T07:12:32;3.70;99.90
13561;DHT22;6852;51.686;5.314;2023-02-28T07:14:59;3.80;99.90
13561;DHT22;6852;51.686;5.314;2023-02-28T07:17:26;3.80;99.90
13561;DHT22;6852;51.686;5.314;2023-02-28T07:19:52;3.70;99.90
13561;DHT22;6852;51.686;5.314;2023-02-28T07:22:19;3.70;99.90
13561;DHT22;6852;51.686;5.314;2023-02-28T07:24:46;3.80;99.90
13561;DHT22;6852;51.686;5.314;2023-02-28T07:27:13;3.90;99.90
13561;DHT22;6852;51.686;5.314;2023-02-28T07:29:50;4.00;99.90
13561;DHT22;6852;51.686;5.314;2023-02-28T07:32:17;4.00;99.90
13561;DHT22;6852;51.686;5.314;2023-02-28T07:34:45;3.90;99.90
13561;DHT22;6852;51.686;5.314;2023-02-28T07:37:12;4.00;99.90
13561;DHT22;6852;51.686;5.314;2023-02-28T07:39:39;4.10;99.90
13561;DHT22;6852;51.686;5.314;2023-02-28T07:42:08;4.10;99.90
13561;DHT22;6852;51.686;5.314;2023-02-28T07:44:38;4.10;99.90
13561;DHT22;6852;51.686;5.314;2023-02-28T07:47:10;4.10;99.90
13561;DHT22;6852;51.686;5.314;2023-02-28T07:49:37;4.10;99.90
13561;DHT22;6852;51.686;5.314;2023-02-28T07:52:05;4.00;99.90
13561;DHT22;6852;51.686;5.314;2023-02-28T07:54:33;4.10;99.90
13561;DHT22;6852;51.686;5.314;2023-02-28T07:57:00;4.00;99.90
13561;DHT22;6852;51.686;5.314;2023-02-28T07:59:27;3.90;99.90
13561;DHT22;6852;51.686;5.314;2023-02-28T08:01:57;4.00;99.90
13561;DHT22;6852;51.686;5.314;2023-02-28T08:04:25;4.00;99.90
13561;DHT22;6852;51.686;5.314;2023-02-28T08:06:52;4.10;99.90
13561;DHT22;6852;51.686;5.314;2023-02-28T08:09:19;3.80;99.90
13561;DHT22;6852;51.686;5.314;2023-02-28T08:11:46;3.90;99.90
13561;DHT22;6852;51.686;5.314;2023-02-28T08:14:13;3.90;99.90
13561;DHT22;6852;51.686;5.314;2023-02-28T08:16:40;4.00;99.90
13561;DHT22;6852;51.686;5.314;2023-02-28T08:19:07;4.40;99.90
13561;DHT22;6852;51.686;5.314;2023-02-28T08:21:34;4.90;99.90
13561;DHT22;6852;51.686;5.314;2023-02-28T08:24:00;5.20;99.90
13561;DHT22;6852;51.686;5.314;2023-02-28T08:26:27;5.50;99.90
13561;DHT22;6852;51.686;5.314;2023-02-28T08:28:54;5.60;99.90
13561;DHT22;6852;51.686;5.314;2023-02-28T08:31:23;5.60;99.90
13561;DHT22;6852;51.686;5.314;2023-02-28T08:33:50;5.60;99.90
13561;DHT22;6852;51.686;5.314;2023-02-28T08:36:19;5.60;99.90
13561;DHT22;6852;51.686;5.314;2023-02-28T08:38:46;5.30;99.90
13561;DHT22;6852;51.686;5.314;2023-02-28T08:41:13;5.10;99.90
13561;DHT22;6852;51.686;5.314;2023-02-28T08:43:40;5.10;99.90
13561;DHT22;6852;51.686;5.314;2023-02-28T08:46:08;5.40;99.90
13561;DHT22;6852;51.686;5.314;2023-02-28T08:48:37;6.00;99.90
13561;DHT22;6852;51.686;5.314;2023-02-28T08:51:07;6.50;99.90
13561;DHT22;6852;51.686;5.314;2023-02-28T08:53:36;7.00;99.90
13561;DHT22;6852;51.686;5.314;2023-02-28T08:56:11;6.70;99.90
13561;DHT22;6852;51.686;5.314;2023-02-28T08:58:38;6.90;99.90
13561;DHT22;6852;51.686;5.314;2023-02-28T09:01:11;7.30;99.90
13561;DHT22;6852;51.686;5.314;2023-02-28T09:03:39;7.60;99.90
13561;DHT22;6852;51.686;5.314;2023-02-28T09:06:08;7.10;99.90
13561;DHT22;6852;51.686;5.314;2023-02-28T09:08:35;6.90;99.90
13561;DHT22;6852;51.686;5.314;2023-02-28T09:11:03;7.50;99.90
13561;DHT22;6852;51.686;5.314;2023-02-28T09:13:30;7.80;99.90
13561;DHT22;6852;51.686;5.314;2023-02-28T09:16:01;8.00;99.90
13561;DHT22;6852;51.686;5.314;2023-02-28T09:18:29;8.20;99.90
13561;DHT22;6852;51.686;5.314;2023-02-28T09:20:56;7.60;99.90
13561;DHT22;6852;51.686;5.314;2023-02-28T09:23:24;7.70;99.90
13561;DHT22;6852;51.686;5.314;2023-02-28T09:25:53;7.60;99.90
13561;DHT22;6852;51.686;5.314;2023-02-28T09:28:20;7.60;99.90
13561;DHT22;6852;51.686;5.314;2023-02-28T09:30:50;7.50;99.90
13561;DHT22;6852;51.686;5.314;2023-02-28T09:33:18;7.80;99.90
13561;DHT22;6852;51.686;5.314;2023-02-28T09:35:51;7.50;99.90
13561;DHT22;6852;51.686;5.314;2023-02-28T09:38:23;7.70;99.90
13561;DHT22;6852;51.686;5.314;2023-02-28T09:40:53;7.70;99.90
13561;DHT22;6852;51.686;5.314;2023-02-28T09:43:23;7.70;99.90
13561;DHT22;6852;51.686;5.314;2023-02-28T09:45:56;7.70;99.90
13561;DHT22;6852;51.686;5.314;2023-02-28T09:48:35;7.80;99.90
13561;DHT22;6852;51.686;5.314;2023-02-28T09:51:25;7.60;99.90
13561;DHT22;6852;51.686;5.314;2023-02-28T09:53:54;7.80;99.90
13561;DHT22;6852;51.686;5.314;2023-02-28T09:56:39;8.00;99.90
13561;DHT22;6852;51.686;5.314;2023-02-28T10:04:50;7.60;99.90
13561;DHT22;6852;51.686;5.314;2023-02-28T10:07:33;7.40;99.90
13561;DHT22;6852;51.686;5.314;2023-02-28T10:10:14;7.70;99.90
13561;DHT22;6852;51.686;5.314;2023-02-28T10:12:45;8.00;99.90
13561;DHT22;6852;51.686;5.314;2023-02-28T10:15:16;8.00;99.90
13561;DHT22;6852;51.686;5.314;2023-02-28T10:17:47;7.70;99.90
13561;DHT22;6852;51.686;5.314;2023-02-28T10:20:37;7.80;99.90
13561;DHT22;6852;51.686;5.314;2023-02-28T10:23:17;8.00;99.90
13561;DHT22;6852;51.686;5.314;2023-02-28T10:25:53;8.10;99.90
13561;DHT22;6852;51.686;5.314;2023-02-28T10:28:21;8.40;99.90
13561;DHT22;6852;51.686;5.314;2023-02-28T10:30:50;8.30;99.90
13561;DHT22;6852;51.686;5.314;2023-02-28T10:35:48;8.90;99.90
13561;DHT22;6852;51.686;5.314;2023-02-28T10:38:44;8.30;99.90
13561;DHT22;6852;51.686;5.314;2023-02-28T10:41:14;8.40;99.90
13561;DHT22;6852;51.686;5.314;2023-02-28T10:43:43;8.50;99.90
13561;DHT22;6852;51.686;5.314;2023-02-28T10:46:16;8.30;99.90
13561;DHT22;6852;51.686;5.314;2023-02-28T10:49:04;8.30;99.90
13561;DHT22;6852;51.686;5.314;2023-02-28T10:51:37;8.30;99.90
13561;DHT22;6852;51.686;5.314;2023-02-28T10:54:05;8.20;99.90
13561;DHT22;6852;51.686;5.314;2023-02-28T10:56:32;8.40;99.90
13561;DHT22;6852;51.686;5.314;2023-02-28T11:01:39;7.50;99.90
13561;DHT22;6852;51.686;5.314;2023-02-28T11:06:44;7.50;99.90
13561;DHT22;6852;51.686;5.314;2023-02-28T11:09:40;7.50;99.90
13561;DHT22;6852;51.686;5.314;2023-02-28T11:12:19;7.40;99.90
13561;DHT22;6852;51.686;5.314;2023-02-28T11:14:49;8.00;99.90
13561;DHT22;6852;51.686;5.314;2023-02-28T11:17:28;7.70;99.90
13561;DHT22;6852;51.686;5.314;2023-02-28T11:20:06;8.10;99.90
13561;DHT22;6852;51.686;5.314;2023-02-28T11:22:37;8.60;99.90
13561;DHT22;6852;51.686;5.314;2023-02-28T11:27:57;8.10;99.90
13561;DHT22;6852;51.686;5.314;2023-02-28T11:30:26;8.40;99.90
13561;DHT22;6852;51.686;5.314;2023-02-28T11:32:53;8.60;99.90
13561;DHT22;6852;51.686;5.314;2023-02-28T11:35:33;8.60;99.90
13561;DHT22;6852;51.686;5.314;2023-02-28T11:38:01;9.00;99.90
13561;DHT22;6852;51.686;5.314;2023-02-28T11:43:44;8.60;99.90
13561;DHT22;6852;51.686;5.314;2023-02-28T11:46:30;8.90;99.90
13561;DHT22;6852;51.686;5.314;2023-02-28T12:01:00;8.80;99.90
13561;DHT22;6852;51.686;5.314;2023-02-28T12:06:18;9.80;99.90
13561;DHT22;6852;51.686;5.314;2023-02-28T12:11:45;9.40;99.90
13561;DHT22;6852;51.686;5.314;2023-02-28T12:27:23;10.70;99.90
13561;DHT22;6852;51.686;5.314;2023-02-28T12:30:00;11.10;99.90
13561;DHT22;6852;51.686;5.314;2023-02-28T12:32:36;10.40;99.90
13561;DHT22;6852;51.686;5.314;2023-02-28T12:37:40;11.20;99.90
13561;DHT22;6852;51.686;5.314;2023-02-28T12:40:16;10.40;99.90
13561;DHT22;6852;51.686;5.314;2023-02-28T12:42:54;10.90;99.90
13561;DHT22;6852;51.686;5.314;2023-02-28T12:45:24;11.00;99.90
13561;DHT22;6852;51.686;5.314;2023-02-28T12:47:59;10.50;99.90
13561;DHT22;6852;51.686;5.314;2023-02-28T12:50:28;10.20;99.90
13561;DHT22;6852;51.686;5.314;2023-02-28T12:53:18;10.50;99.90
13561;DHT22;6852;51.686;5.314;2023-02-28T12:56:08;11.10;99.90
13561;DHT22;6852;51.686;5.314;2023-02-28T13:07:11;11.00;99.90
13561;DHT22;6852;51.686;5.314;2023-02-28T13:09:40;10.30;99.90
13561;DHT22;6852;51.686;5.314;2023-02-28T13:12:13;10.40;99.90
13561;DHT22;6852;51.686;5.314;2023-02-28T13:14:40;10.30;99.90
13561;DHT22;6852;51.686;5.314;2023-02-28T13:19:46;10.50;99.90
13561;DHT22;6852;51.686;5.314;2023-02-28T13:24:52;10.60;99.90
13561;DHT22;6852;51.686;5.314;2023-02-28T13:29:52;10.90;99.90
13561;DHT22;6852;51.686;5.314;2023-02-28T13:32:30;10.20;99.90
13561;DHT22;6852;51.686;5.314;2023-02-28T13:39:57;10.40;99.90
13561;DHT22;6852;51.686;5.314;2023-02-28T13:42:36;10.80;99.90
13561;DHT22;6852;51.686;5.314;2023-02-28T13:47:40;10.10;99.90
13561;DHT22;6852;51.686;5.314;2023-02-28T13:56:03;10.00;99.90
13561;DHT22;6852;51.686;5.314;2023-02-28T14:01:48;10.30;99.90
13561;DHT22;6852;51.686;5.314;2023-02-28T14:07:16;10.40;99.90
13561;DHT22;6852;51.686;5.314;2023-02-28T14:09:50;10.50;99.90
13561;DHT22;6852;51.686;5.314;2023-02-28T14:18:33;10.80;99.90
13561;DHT22;6852;51.686;5.314;2023-02-28T14:21:26;10.60;99.90
13561;DHT22;6852;51.686;5.314;2023-02-28T14:24:10;10.10;99.90
13561;DHT22;6852;51.686;5.314;2023-02-28T14:37:29;10.00;99.90
13561;DHT22;6852;51.686;5.314;2023-02-28T14:39:58;10.40;99.90
13561;DHT22;6852;51.686;5.314;2023-02-28T14:42:36;10.30;99.90
13561;DHT22;6852;51.686;5.314;2023-02-28T14:45:20;9.60;99.90
13561;DHT22;6852;51.686;5.314;2023-02-28T14:47:50;9.40;99.90
13561;DHT22;6852;51.686;5.314;2023-02-28T14:50:24;9.70;99.90
13561;DHT22;6852;51.686;5.314;2023-02-28T14:52:54;10.20;99.90
13561;DHT22;6852;51.686;5.314;2023-02-28T14:55:33;9.80;99.90
13561;DHT22;6852;51.686;5.314;2023-02-28T14:58:05;10.30;99.90
13561;DHT22;6852;51.686;5.314;2023-02-28T15:00:39;10.70;99.90
13561;DHT22;6852;51.686;5.314;2023-02-28T15:05:54;10.10;99.90
13561;DHT22;6852;51.686;5.314;2023-02-28T15:08:21;9.60;99.90
13561;DHT22;6852;51.686;5.314;2023-02-28T15:11:06;9.90;99.90
13561;DHT22;6852;51.686;5.314;2023-02-28T15:13:40;9.40;99.90
13561;DHT22;6852;51.686;5.314;2023-02-28T15:16:12;9.00;99.90
13561;DHT22;6852;51.686;5.314;2023-02-28T15:18:49;9.30;99.90
13561;DHT22;6852;51.686;5.314;2023-02-28T15:21:20;9.10;99.90
13561;DHT22;6852;51.686;5.314;2023-02-28T15:24:10;8.70;99.90
13561;DHT22;6852;51.686;5.314;2023-02-28T15:26:42;8.90;99.90
13561;DHT22;6852;51.686;5.314;2023-02-28T15:29:15;9.30;99.90
13561;DHT22;6852;51.686;5.314;2023-02-28T15:31:46;8.90;99.90
13561;DHT22;6852;51.686;5.314;2023-02-28T15:34:43;8.80;99.90
13561;DHT22;6852;51.686;5.314;2023-02-28T15:42:38;9.30;99.90
13561;DHT22;6852;51.686;5.314;2023-02-28T15:45:05;8.60;99.90
13561;DHT22;6852;51.686;5.314;2023-02-28T15:47:32;8.30;99.90
13561;DHT22;6852;51.686;5.314;2023-02-28T15:50:05;8.60;99.90
13561;DHT22;6852;51.686;5.314;2023-02-28T15:52:41;8.50;99.90
13561;DHT22;6852;51.686;5.314;2023-02-28T15:55:18;8.90;99.90
13561;DHT22;6852;51.686;5.314;2023-02-28T15:57:50;8.90;99.90
13561;DHT22;6852;51.686;5.314;2023-02-28T16:00:22;8.70;99.90
13561;DHT22;6852;51.686;5.314;2023-02-28T16:02:50;8.60;99.90
13561;DHT22;6852;51.686;5.314;2023-02-28T16:05:27;8.20;99.90
13561;DHT22;6852;51.686;5.314;2023-02-28T16:08:01;8.30;99.90
13561;DHT22;6852;51.686;5.314;2023-02-28T16:10:33;8.20;99.90
13561;DHT22;6852;51.686;5.314;2023-02-28T16:13:02;7.90;99.90
13561;DHT22;6852;51.686;5.314;2023-02-28T16:15:38;7.70;99.90
13561;DHT22;6852;51.686;5.314;2023-02-28T16:18:11;7.80;99.90
13561;DHT22;6852;51.686;5.314;2023-02-28T16:20:39;7.60;99.90
13561;DHT22;6852;51.686;5.314;2023-02-28T16:23:06;7.50;99.90
13561;DHT22;6852;51.686;5.314;2023-02-28T16:25:40;7.30;99.90
13561;DHT22;6852;51.686;5.314;2023-02-28T16:28:30;7.30;99.90
13561;DHT22;6852;51.686;5.314;2023-02-28T16:31:04;7.50;99.90
13561;DHT22;6852;51.686;5.314;2023-02-28T16:33:34;7.50;99.90
13561;DHT22;6852;51.686;5.314;2023-02-28T16:36:01;7.40;99.90
13561;DHT22;6852;51.686;5.314;2023-02-28T16:38:28;7.40;99.90
13561;DHT22;6852;51.686;5.314;2023-02-28T16:40:57;7.40;99.90
13561;DHT22;6852;51.686;5.314;2023-02-28T16:43:26;7.40;99.90
13561;DHT22;6852;51.686;5.314;2023-02-28T16:45:57;7.20;99.90
13561;DHT22;6852;51.686;5.314;2023-02-28T16:48:27;7.20;99.90
13561;DHT22;6852;51.686;5.314;2023-02-28T16:50:54;7.30;99.90
13561;DHT22;6852;51.686;5.314;2023-02-28T16:53:20;7.20;99.90
13561;DHT22;6852;51.686;5.314;2023-02-28T16:55:47;7.20;99.90
13561;DHT22;6852;51.686;5.314;2023-02-28T16:58:15;7.10;99.90
13561;DHT22;6852;51.686;5.314;2023-02-28T17:00:43;7.00;99.90
13561;DHT22;6852;51.686;5.314;2023-02-28T17:03:21;7.00;99.90
13561;DHT22;6852;51.686;5.314;2023-02-28T17:05:58;7.10;99.90
13561;DHT22;6852;51.686;5.314;2023-02-28T17:08:24;7.00;99.90
13561;DHT22;6852;51.686;5.314;2023-02-28T17:10:52;7.00;99.90
13561;DHT22;6852;51.686;5.314;2023-02-28T17:13:18;7.00;99.90
13561;DHT22;6852;51.686;5.314;2023-02-28T17:15:46;7.00;99.90
13561;DHT22;6852;51.686;5.314;2023-02-28T17:18:18;6.90;99.90
13561;DHT22;6852;51.686;5.314;2023-02-28T17:20:45;6.90;99.90
13561;DHT22;6852;51.686;5.314;2023-02-28T17:23:12;6.90;99.90
13561;DHT22;6852;51.686;5.314;2023-02-28T17:25:39;6.90;99.90
13561;DHT22;6852;51.686;5.314;2023-02-28T17:28:06;6.80;99.90
13561;DHT22;6852;51.686;5.314;2023-02-28T17:30:34;6.70;99.90
13561;DHT22;6852;51.686;5.314;2023-02-28T17:33:01;6.80;99.90
13561;DHT22;6852;51.686;5.314;2023-02-28T17:35:28;6.80;99.90
13561;DHT22;6852;51.686;5.314;2023-02-28T17:37:55;6.70;99.90
13561;DHT22;6852;51.686;5.314;2023-02-28T17:40:23;6.70;99.90
13561;DHT22;6852;51.686;5.314;2023-02-28T17:42:50;6.60;99.90
13561;DHT22;6852;51.686;5.314;2023-02-28T17:45:19;6.50;99.90
13561;DHT22;6852;51.686;5.314;2023-02-28T17:47:47;6.50;99.90
13561;DHT22;6852;51.686;5.314;2023-02-28T17:50:17;6.60;99.90
13561;DHT22;6852;51.686;5.314;2023-02-28T17:52:45;6.60;99.90
13561;DHT22;6852;51.686;5.314;2023-02-28T17:55:13;6.60;99.90
13561;DHT22;6852;51.686;5.314;2023-02-28T17:57:40;6.50;99.90
13561;DHT22;6852;51.686;5.314;2023-02-28T18:00:13;6.50;99.90
13561;DHT22;6852;51.686;5.314;2023-02-28T18:02:42;6.50;99.90
13561;DHT22;6852;51.686;5.314;2023-02-28T18:05:10;6.50;99.90
13561;DHT22;6852;51.686;5.314;2023-02-28T18:07:37;6.40;99.90
13561;DHT22;6852;51.686;5.314;2023-02-28T18:10:06;6.40;99.90
13561;DHT22;6852;51.686;5.314;2023-02-28T18:12:33;6.40;99.90
13561;DHT22;6852;51.686;5.314;2023-02-28T18:15:00;6.30;99.90
13561;DHT22;6852;51.686;5.314;2023-02-28T18:17:27;6.40;99.90
13561;DHT22;6852;51.686;5.314;2023-02-28T18:19:54;6.40;99.90
13561;DHT22;6852;51.686;5.314;2023-02-28T18:22:21;6.30;99.90
13561;DHT22;6852;51.686;5.314;2023-02-28T18:24:48;6.20;99.90
13561;DHT22;6852;51.686;5.314;2023-02-28T18:27:14;6.20;99.90
13561;DHT22;6852;51.686;5.314;2023-02-28T18:29:41;6.20;99.90
13561;DHT22;6852;51.686;5.314;2023-02-28T18:32:08;6.10;99.90
13561;DHT22;6852;51.686;5.314;2023-02-28T18:34:36;6.00;99.90
13561;DHT22;6852;51.686;5.314;2023-02-28T18:37:03;5.90;99.90
13561;DHT22;6852;51.686;5.314;2023-02-28T18:39:30;5.90;99.90
13561;DHT22;6852;51.686;5.314;2023-02-28T18:41:58;6.00;99.90
13561;DHT22;6852;51.686;5.314;2023-02-28T18:44:24;5.90;99.90
13561;DHT22;6852;51.686;5.314;2023-02-28T18:46:51;5.90;99.90
13561;DHT22;6852;51.686;5.314;2023-02-28T18:49:18;5.80;99.90
13561;DHT22;6852;51.686;5.314;2023-02-28T18:51:46;5.80;99.90